Aviation Digital Data Service (ADDS)

Output produced by METARs form (1715 UTC 23 October 2017)
found at http://www.aviationweather.gov/adds/metars/
 
KUNV 231653Z 18007KT 10SM BKN024 BKN031 19/14 A3010
KUNV 231553Z 19006KT 7SM OVC020 17/14 A3014
KUNV 231453Z 17009KT 7SM OVC018 17/14 A3015
KUNV 231353Z 17009KT 7SM OVC018 16/13 A3018
KUNV 231253Z 18005KT 7SM OVC018 15/12 A3020
KUNV 231153Z 15011KT 10SM BKN020 13/11 A3020
KUNV 231125Z 00000KT 10SM BKN020 BKN075 14/11 A3020
KUNV 231053Z 00000KT 10SM SCT022 SCT055 SCT065 13/10 A3021
KUNV 230953Z 00000KT 10SM SCT055 SCT080 14/10 A3022
KUNV 230935Z AUTO 00000KT 10SM SCT055 SCT070 SCT080 14/10 A3022 RMK AO2 T01410095
KUNV 230915Z AUTO 00000KT 10SM SCT065 SCT080 14/10 A3023 RMK AO2 T01380095
KUNV 230855Z AUTO 00000KT 10SM CLR 15/10 A3023 RMK AO2 T01460095
KUNV 230835Z AUTO 00000KT 10SM SCT065 SCT090 14/10 A3024 RMK AO2 T01400095
KUNV 230815Z AUTO 00000KT 10SM SCT055 SCT090 15/10 A3024 RMK AO2 T01480097
KUNV 230755Z AUTO 00000KT 10SM SCT055 SCT075 SCT085 14/10 A3025 RMK AO2 T01390095
KUNV 230735Z AUTO 00000KT 10SM SCT055 SCT075 BKN085 15/10 A3025 RMK AO2 T01470100
KUNV 230715Z AUTO 00000KT 10SM SCT055 SCT075 SCT085 15/10 A3025 RMK AO2 T01510100
KUNV 230655Z AUTO 00000KT 10SM SCT075 SCT085 15/10 A3025 RMK AO2 T01520101
KUNV 230635Z AUTO 21003KT 10SM SCT075 15/10 A3025 RMK AO2 T01500100
KUNV 230615Z AUTO 17004KT 10SM SCT070 SCT085 SCT100 15/10 A3025 RMK AO2 T01530103
KUNV 230555Z AUTO 18003KT 10SM SCT070 SCT100 16/10 A3025 RMK AO2 T01560103 10184 20156
KUNV 230535Z AUTO 00000KT 10SM SCT060 SCT075 SCT095 16/11 A3025 RMK AO2 T01610105
KUNV 230515Z AUTO 00000KT 10SM SCT060 SCT075 SCT095 16/11 A3026 RMK AO2 T01620105
KUNV 230455Z AUTO 00000KT 10SM CLR 16/10 A3026 RMK AO2 T01610103
KUNV 230435Z AUTO 26003KT 10SM CLR 16/10 A3026 RMK AO2 T01600103
KUNV 230415Z AUTO 00000KT 10SM SCT065 16/10 A3026 RMK AO2 T01610102
KUNV 230355Z AUTO 00000KT 10SM CLR 16/10 A3027 RMK AO2 T01570103 402270058
KUNV 230335Z AUTO 00000KT 10SM CLR 17/11 A3028 RMK AO2 T01670105
KUNV 230315Z AUTO 00000KT 10SM CLR 17/11 A3028 RMK AO2 T01660105
KUNV 230255Z AUTO 00000KT 10SM CLR 17/11 A3028 RMK AO2 T01700106
KUNV 230235Z AUTO 18004KT 10SM CLR 17/11 A3029 RMK AO2 T01730107
KUNV 230215Z AUTO 18006KT 10SM CLR 17/11 A3030 RMK AO2 T01740108
KUNV 230053Z 18006KT 10SM SCT060 18/11 A3029
KUNV 222353Z 18005KT 10SM SKC 19/12 A3030
KUNV 222253Z 18005KT 10SM SCT055 SCT085 19/12 A3027
KUNV 222153Z 16007KT 10SM SKC 21/11 A3027
KUNV 222053Z 16007KT 10SM SKC 22/12 A3027
KUNV 221953Z 17008G15KT 10SM SKC 22/11 A3028
KUNV 221853Z 18011KT 10SM SCT048 SCT065 21/11 A3030
KUNV 221753Z 20008KT 10SM SKC 22/11 A3031
KUNV 221653Z 20008KT 10SM SKC 21/11 A3034
KUNV 221553Z 00000KT 10SM SKC 17/10 A3036
KUNV 221453Z 00000KT 10SM SKC 16/10 A3037
KUNV 221353Z 00000KT 10SM SKC 10/08 A3038
KUNV 221253Z 00000KT 10SM SKC 09/08 A3037
KUNV 221153Z 00000KT 10SM SKC 06/06 A3037
KUNV 221053Z 00000KT 10SM SCT090 06/05 A3036
KUNV 220953Z 00000KT 10SM SKC 07/06 A3035
KUNV 220930Z AUTO 00000KT 10SM CLR 07/06 A3035 RMK AO2 T00690060
KUNV 220910Z AUTO 00000KT 10SM CLR 08/06 A3035 RMK AO2 T00750063
KUNV 220855Z AUTO 00000KT 10SM CLR 08/06 A3034 RMK AO2 T00790062
KUNV 220830Z AUTO 00000KT 10SM CLR 09/06 A3033 RMK AO2 T00860062
KUNV 220810Z AUTO 00000KT 10SM CLR 09/06 A3033 RMK AO2 T00850063
KUNV 220755Z AUTO 00000KT 10SM CLR 08/06 A3033 RMK AO2 T00840062
KUNV 220735Z AUTO 00000KT 10SM SCT080 SCT090 09/07 A3033 RMK AO2 T00890065
KUNV 220715Z AUTO 00000KT 10SM SCT080 09/07 A3033 RMK AO2 T00860065
KUNV 220655Z AUTO 00000KT 10SM SCT065 SCT080 09/06 A3033 RMK AO2 T00920064
KUNV 220640Z AUTO 00000KT 10SM CLR 10/06 A3033 RMK AO2 T00980063
KUNV 220615Z AUTO 24003KT 10SM CLR 11/07 A3033 RMK AO2 T01050065
KUNV 220555Z AUTO 00000KT 10SM CLR 09/07 A3033 RMK AO2 T00940068 10169 20092
KUNV 220535Z AUTO 00000KT 10SM SCT075 SCT080 10/07 A3033 RMK AO2 T01010068